Kirkland, WA (98034)

11:34 PM PDT on September 30, 2016 (GMT -0700)
APRSWXNET | | Change Station

Elev 262 ft 47.71 °N, 122.19 °W | Updated 37 minutes ago

Scattered Clouds
Scattered Clouds
52.0 °F
Feels Like 52.0 °F
N
1.0
Wind Variable Wind from South
Gusts 0.0 mph

Today
High -- | Low -- °F
--% Chance of Precip.
Yesterday
High -- | Low -- °F
Precip. -- in
Pressure 29.97 in
Visibility 10.0 miles
Clouds Scattered Clouds 8500 ft
Dew Point 45.0 °F
Humidity 77%
Rainfall in
Snow Depth Not available.
7:07 AM 6:48 PM
New Moon, 0% visible
METAR KBFI 010553Z VRB03KT 10SM SCT085 13/06 A2997 RMK AO2 SLP147 T01330061 10183 20128 50007 $
Pressure 29.97 in
Visibility 10.0 miles
Clouds Scattered Clouds 8500 ft
Dew Point 45.0 °F
Humidity 77%
Rainfall in
Snow Depth Not available.
7:07 AM 6:48 PM
New Moon, 0% visible
METAR KBFI 010553Z VRB03KT 10SM SCT085 13/06 A2997 RMK AO2 SLP147 T01330061 10183 20128 50007 $

10-Day Weather Forecast

Almanac

Astronomy

Sep. 30, 2016 Rise Set
Actual Time
Civil Twilight
Nautical Twilight
Astronomical Twilight
Moon
Length of Visible Light
Length of Day
Tomorrow will be .
, % of the Moon is Illuminated

Today's Extremes

State Highs State Lows

Community

WunderPhotos

Upload Photos

1,942,898 photos uploaded!

WunderBlog® & News

Nearby

Air Quality

  Air Quality AQ Index Pollutant
Not available.

Snow Depth

Station Depth Elevation

Earthquake Activity

City Distance Mag. Time & Date
Minimum magnitude displayed is 2.5.

Coastal Water Temperatures

Place Temperature

Stations

Nearby Weather Stations

Station Location Temp. Windchill Dew Point Humidity Wind Precip. Elev Updated Type
                   

Watches & Warnings

There are currently no watches in effect.